113 Sun Mar 24 15:29:18 EDT 2019 receiving avg 892 msg/sec near East Meadow, NY Cruising Descending Ascending Mouse over a plane for info. Click for FlightAware details

VerticaAircraft and message statistics by day, by hour, by minute. Updates every 5 minutes. The most recent entry may show partial data for the current time period.

day aircraft_day messages_day
2019-03-17 3354 52968950
2019-03-18 3208 52856259
2019-03-19 3141 48777158
2019-03-20 2319 27087621
2019-03-21 3148 51727213
2019-03-22 3085 55687295
2019-03-23 2767 47431025
2019-03-24 2473 26952029
day hour aircraft_hour messages_hour
2019-03-23 11:00:00 438 2728956
2019-03-23 12:00:00 401 2581706
2019-03-23 13:00:00 451 2741951
2019-03-23 14:00:00 479 2843576
2019-03-23 15:00:00 516 3004026
2019-03-23 16:00:00 512 2944854
2019-03-23 17:00:00 492 2721710
2019-03-23 18:00:00 453 2618057
2019-03-23 19:00:00 395 2549427
2019-03-23 20:00:00 362 2374359
2019-03-23 21:00:00 324 2208098
2019-03-23 22:00:00 260 1749159
2019-03-23 23:00:00 202 1428363
2019-03-24 00:00:00 119 866799
2019-03-24 01:00:00 61 384868
2019-03-24 02:00:00 36 235478
2019-03-24 03:00:00 23 113788
2019-03-24 04:00:00 44 179592
2019-03-24 05:00:00 87 494657
2019-03-24 06:00:00 270 1834340
2019-03-24 07:00:00 333 2016716
2019-03-24 08:00:00 450 2541506
2019-03-24 09:00:00 528 2630225
2019-03-24 10:00:00 554 2735595
2019-03-24 11:00:00 559 2807583
2019-03-24 12:00:00 613 2641283
2019-03-24 13:00:00 584 2935662
2019-03-24 14:00:00 637 3194393
2019-03-24 15:00:00 396 1341543
today_minute aircraft_minute messages_minute avg_msg_second
14:55:00 188 48424 807
14:56:00 196 50120 835
14:57:00 189 49626 827
14:58:00 189 50492 841
14:59:00 187 51308 855
15:00:00 183 51457 857
15:01:00 189 51299 854
15:02:00 190 49311 821
15:03:00 176 51633 860
15:04:00 176 50605 843
15:05:00 172 52104 868
15:06:00 179 48153 802
15:07:00 173 50939 848
15:08:00 169 53187 886
15:09:00 177 55550 925
15:10:00 173 57659 960
15:11:00 171 55983 933
15:12:00 168 56528 942
15:13:00 171 57740 962
15:14:00 166 56106 935
15:15:00 162 58696 978
15:16:00 166 57769 962
15:17:00 170 55325 922
15:18:00 165 52656 877
15:19:00 167 54083 901
15:20:00 175 53165 886
15:21:00 178 52193 869
15:22:00 176 53672 894
15:23:00 166 51821 863
15:24:00 169 52725 878
15:25:00 163 33180 553

METAR (METeorological Aerodrome Report) weather reports are updated hourly.

location Time weather Temp Dew Point RH% Wind Wind Chill
Farmingdale - Republic Airport NY Last Updated on Mar 24 2019 2:53 pm EDT Fair 52.0 F (11.1 C) 21.9 F (-5.6 C) 31 47  
Islip Long Island Mac Arthur Airport NY Last Updated on Mar 24 2019 2:56 pm EDT Overcast 50.0 F (10.0 C) 21.9 F (-5.6 C) 33 45  
New York Kennedy International Airport NY Last Updated on Mar 24 2019 2:51 pm EDT Mostly Cloudy and Breezy 58.0 F (14.4 C) 21.0 F (-6.1 C) 24 Southwest at 20.7 MPH (18 KT) 54 F (12 C)
New York La Guardia Airport NY Last Updated on Mar 24 2019 2:51 pm EDT Mostly Cloudy 58.0 F (14.4 C) 10.9 F (-11.7 C) 15 from the Southwest at 15.0 gusting to 23.0 MPH (13 gusting to 20 KT) 55 F (13 C)
Newark Newark International Airport NJ Last Updated on Mar 24 2019 2:51 pm EDT Mostly Cloudy 59.0 F (15.0 C) 15.1 F (-9.4 C) 18 from the Southwest at 12.7 gusting to 24.2 MPH (11 gusting to 21 KT) 57 F (14 C)
Teterboro Teterboro Airport NJ Last Updated on Mar 24 2019 2:51 pm EDT Fair 59.0 F (15.0 C) 19.0 F (-7.2 C) 21 from the Southwest at 12.7 gusting to 23.0 MPH (11 gusting to 20 KT) 57 F (14 C)
White Plains - Westchester County Airport NY Last Updated on Mar 24 2019 2:56 pm EDT Fair 56.0 F (13.3 C) 10.9 F (-11.7 C) 17 55  
NWS Radar